Time;durP1;ratioP1;P1;durP2;ratioP2;P2;SDS_P1;SDS_P2;PMS_P1;PMS_P2;Temp;Humidity;BMP_temperature;BMP_pressure;BME280_temperature;BME280_humidity;BME280_pressure;Samples;Min_cycle;Max_cycle;Signal;HPM_P1;HPM_P2
2024/03/11 00:00:18;;;;;;;25.83;17.27;;;9.00;99.90;;;;;;6191324;22;20561;-82
2024/03/11 00:02:46;;;;;;;27.77;19.83;;;9.00;99.90;;;;;;6217447;22;20038;-84
2024/03/11 00:05:12;;;;;;;26.17;17.40;;;9.00;99.90;;;;;;6191254;22;20004;-84
2024/03/11 00:07:39;;;;;;;24.42;16.80;;;9.00;99.90;;;;;;6188266;22;20014;-85
2024/03/11 00:10:11;;;;;;;26.27;17.92;;;8.90;99.90;;;;;;6213390;22;20444;-85
2024/03/11 00:12:51;;;;;;;23.48;16.42;;;8.90;99.90;;;;;;6215503;22;20576;-84
2024/03/11 00:15:20;;;;;;;27.10;17.48;;;8.90;99.90;;;;;;6168041;23;20077;-84
2024/03/11 00:17:51;;;;;;;21.55;14.55;;;8.90;99.90;;;;;;6194916;23;20679;-83
2024/03/11 00:20:18;;;;;;;22.42;16.13;;;8.90;99.90;;;;;;6216552;22;20820;-83
2024/03/11 00:22:44;;;;;;;27.63;19.10;;;9.00;99.90;;;;;;6214324;22;20065;-84
2024/03/11 00:25:10;;;;;;;24.67;17.27;;;8.90;99.90;;;;;;6187567;22;20035;-83
2024/03/11 00:27:36;;;;;;;32.30;20.70;;;8.90;99.90;;;;;;6189116;22;20341;-83
2024/03/11 00:30:06;;;;;;;38.78;24.23;;;8.80;99.90;;;;;;6189349;22;20076;-82
2024/03/11 00:32:32;;;;;;;21.85;15.15;;;8.80;99.90;;;;;;6192569;22;20008;-83
2024/03/11 00:34:57;;;;;;;39.13;25.02;;;8.70;99.90;;;;;;6216472;22;20011;-82
2024/03/11 00:37:23;;;;;;;45.25;27.08;;;8.60;99.90;;;;;;6192487;22;20445;-83
2024/03/11 00:39:49;;;;;;;46.05;29.60;;;8.60;99.90;;;;;;6192530;22;20011;-82
2024/03/11 00:42:14;;;;;;;39.33;25.00;;;8.60;99.90;;;;;;6216830;22;20012;-82
2024/03/11 00:44:40;;;;;;;33.22;21.50;;;8.50;99.90;;;;;;6190468;22;20389;-81
2024/03/11 00:47:06;;;;;;;43.70;27.83;;;8.50;99.90;;;;;;6213417;22;20087;-83
2024/03/11 00:49:32;;;;;;;28.58;19.25;;;8.50;99.90;;;;;;6187433;22;20016;-83
2024/03/11 00:51:58;;;;;;;49.60;29.38;;;8.40;99.90;;;;;;6212726;22;20023;-82
2024/03/11 00:54:23;;;;;;;46.17;29.40;;;8.40;99.90;;;;;;6238103;22;20554;-83
2024/03/11 00:56:50;;;;;;;47.78;29.45;;;8.40;99.90;;;;;;6214149;22;20554;-83
2024/03/11 00:59:16;;;;;;;48.25;30.58;;;8.40;99.90;;;;;;6215889;22;20437;-82
2024/03/11 01:01:44;;;;;;;46.78;29.67;;;8.30;99.90;;;;;;6189404;22;20090;-83
2024/03/11 01:04:09;;;;;;;48.20;31.15;;;8.40;99.90;;;;;;6188407;22;20035;-83
2024/03/11 01:06:36;;;;;;;46.80;30.33;;;8.30;99.90;;;;;;6212517;22;20480;-83
2024/03/11 01:09:02;;;;;;;50.63;31.02;;;8.30;99.90;;;;;;6213228;22;20016;-83
2024/03/11 01:11:28;;;;;;;47.75;31.00;;;8.30;99.90;;;;;;6189266;22;20337;-79
2024/03/11 01:13:53;;;;;;;50.97;31.58;;;8.30;99.90;;;;;;6187564;22;20039;-79
2024/03/11 01:16:20;;;;;;;54.05;33.63;;;8.30;99.90;;;;;;6238762;22;20016;-79
2024/03/11 01:18:45;;;;;;;52.72;32.50;;;8.20;99.90;;;;;;6212360;22;20035;-79
2024/03/11 01:21:13;;;;;;;50.70;31.65;;;8.20;99.90;;;;;;6212396;22;20475;-79
2024/03/11 01:23:39;;;;;;;52.42;31.77;;;8.30;99.90;;;;;;6187449;22;20349;-79
2024/03/11 01:26:06;;;;;;;50.47;31.70;;;8.20;99.90;;;;;;6164713;22;20023;-79
2024/03/11 01:28:32;;;;;;;57.20;32.55;;;8.20;99.90;;;;;;6188992;22;20019;-79
2024/03/11 01:30:58;;;;;;;49.40;32.22;;;8.30;99.90;;;;;;6187393;22;20007;-79
2024/03/11 01:33:24;;;;;;;54.78;33.70;;;8.20;99.90;;;;;;6212987;22;20118;-79
2024/03/11 01:35:53;;;;;;;53.50;33.92;;;8.20;99.90;;;;;;6187656;22;20008;-79
2024/03/11 01:38:19;;;;;;;31.92;21.38;;;8.10;99.90;;;;;;6214727;22;20008;-79
2024/03/11 01:40:46;;;;;;;36.10;22.48;;;8.20;99.90;;;;;;6185827;22;20468;-79
2024/03/11 01:43:14;;;;;;;28.20;18.58;;;8.20;99.90;;;;;;6188041;22;20520;-79
2024/03/11 01:45:40;;;;;;;27.73;17.33;;;8.20;99.90;;;;;;6213359;22;20472;-79
2024/03/11 01:48:06;;;;;;;51.03;32.13;;;8.20;99.90;;;;;;6186658;22;20457;-79
2024/03/11 01:50:32;;;;;;;52.88;32.67;;;8.10;99.90;;;;;;6187053;22;20337;-79
2024/03/11 01:53:03;;;;;;;59.00;34.15;;;8.10;99.90;;;;;;6210414;22;20011;-79
2024/03/11 01:55:28;;;;;;;56.28;34.35;;;8.10;99.90;;;;;;6213424;22;20649;-79
2024/03/11 01:57:55;;;;;;;37.55;23.05;;;8.10;99.90;;;;;;6212386;22;20004;-79
2024/03/11 02:00:24;;;;;;;53.03;31.83;;;8.10;99.90;;;;;;6188318;22;20004;-79
2024/03/11 02:02:53;;;;;;;51.65;30.67;;;8.10;99.90;;;;;;6164749;23;20338;-79
2024/03/11 02:05:19;;;;;;;34.03;21.63;;;8.10;99.90;;;;;;6163542;23;20434;-79
2024/03/11 02:07:48;;;;;;;27.25;17.30;;;8.10;99.90;;;;;;6206983;23;20001;-79
2024/03/11 02:10:14;;;;;;;29.77;19.10;;;8.10;99.90;;;;;;6206439;23;20061;-79
2024/03/11 02:12:45;;;;;;;24.92;16.52;;;8.20;99.90;;;;;;6183262;23;20494;-79
2024/03/11 02:15:11;;;;;;;24.17;16.25;;;8.10;99.90;;;;;;6180379;23;20429;-79
2024/03/11 02:17:42;;;;;;;39.83;26.10;;;8.10;99.90;;;;;;6185880;23;20435;-79
2024/03/11 02:20:18;;;;;;;29.38;18.13;;;8.10;99.90;;;;;;6211782;22;20043;-79
2024/03/11 02:22:44;;;;;;;24.25;17.08;;;8.10;99.90;;;;;;6191528;22;20207;-79
2024/03/11 02:25:12;;;;;;;24.00;16.27;;;8.00;99.90;;;;;;6185449;23;20334;-79
2024/03/11 02:27:39;;;;;;;26.77;18.23;;;8.00;99.90;;;;;;6183800;23;20012;-79
2024/03/11 02:30:07;;;;;;;29.05;18.35;;;8.00;99.90;;;;;;6206477;23;20008;-79
2024/03/11 02:32:33;;;;;;;25.83;16.20;;;8.00;99.90;;;;;;6209847;23;20011;-79
2024/03/11 02:34:59;;;;;;;25.63;17.00;;;8.00;99.90;;;;;;6206990;23;20008;-79
2024/03/11 02:37:25;;;;;;;25.08;17.17;;;8.00;99.90;;;;;;6188675;23;20018;-79
2024/03/11 02:39:51;;;;;;;30.15;19.25;;;8.00;99.90;;;;;;6237011;22;20011;-79
2024/03/11 02:42:17;;;;;;;26.42;17.02;;;8.00;99.90;;;;;;6186055;23;20016;-79
2024/03/11 02:44:42;;;;;;;22.65;15.43;;;8.10;99.90;;;;;;6185719;23;20012;-79
2024/03/11 02:47:08;;;;;;;49.97;29.70;;;8.10;99.90;;;;;;6216319;23;20016;-79
2024/03/11 02:49:34;;;;;;;24.05;16.83;;;8.00;99.90;;;;;;6211211;22;20046;-79
2024/03/11 02:52:00;;;;;;;24.45;15.95;;;8.00;99.90;;;;;;6212281;22;20069;-79
2024/03/11 02:54:26;;;;;;;27.55;18.17;;;8.00;99.90;;;;;;6212145;22;20011;-79
2024/03/11 02:56:52;;;;;;;34.97;22.52;;;8.00;99.90;;;;;;6240888;22;20523;-79
2024/03/11 02:59:18;;;;;;;29.95;20.20;;;8.00;99.90;;;;;;6212467;22;20330;-79
2024/03/11 03:01:44;;;;;;;33.75;20.52;;;8.00;99.90;;;;;;6211954;22;20047;-79
2024/03/11 03:04:10;;;;;;;31.73;21.13;;;8.00;99.90;;;;;;6237568;22;20008;-79
2024/03/11 03:06:36;;;;;;;35.33;23.25;;;8.10;99.90;;;;;;6214120;22;20076;-79
2024/03/11 03:09:07;;;;;;;25.05;16.48;;;8.10;99.90;;;;;;6213734;22;20464;-79
2024/03/11 03:11:36;;;;;;;40.70;25.45;;;8.10;99.90;;;;;;6213690;22;20011;-79
2024/03/11 03:14:02;;;;;;;40.95;27.02;;;8.20;99.90;;;;;;6187252;23;20012;-79
2024/03/11 03:16:27;;;;;;;48.72;30.67;;;8.00;99.90;;;;;;6183001;23;20442;-79
2024/03/11 03:18:54;;;;;;;50.22;31.27;;;7.90;99.90;;;;;;6180168;23;20012;-79
2024/03/11 03:21:21;;;;;;;48.78;30.33;;;8.00;99.90;;;;;;6215262;22;20061;-79
2024/03/11 03:23:47;;;;;;;56.00;32.65;;;7.90;99.90;;;;;;6189283;22;20035;-79
2024/03/11 03:26:12;;;;;;;53.95;34.50;;;7.90;99.90;;;;;;6187563;22;20014;-79
2024/03/11 03:28:38;;;;;;;60.80;35.20;;;7.90;99.90;;;;;;6187599;22;20421;-79
2024/03/11 03:31:04;;;;;;;61.03;33.30;;;7.90;99.90;;;;;;6190060;22;20690;-82
2024/03/11 03:33:30;;;;;;;38.00;24.27;;;7.90;99.90;;;;;;6190537;22;20007;-83
2024/03/11 03:35:55;;;;;;;59.10;35.97;;;7.90;99.90;;;;;;6189510;22;20019;-83
2024/03/11 03:38:21;;;;;;;49.85;29.38;;;7.90;99.90;;;;;;6190458;22;20015;-83
2024/03/11 03:40:47;;;;;;;43.90;27.63;;;7.90;99.90;;;;;;6190082;22;20096;-83
2024/03/11 03:43:13;;;;;;;60.03;35.33;;;7.90;99.90;;;;;;6189330;22;20370;-83
2024/03/11 03:45:38;;;;;;;59.35;35.88;;;7.80;99.90;;;;;;6187792;22;20011;-83
2024/03/11 03:48:04;;;;;;;57.38;34.58;;;7.90;99.90;;;;;;6239575;22;20118;-83
2024/03/11 03:50:30;;;;;;;47.40;29.48;;;7.90;99.90;;;;;;6189511;22;20004;-83
2024/03/11 03:52:56;;;;;;;46.10;27.15;;;7.90;99.90;;;;;;6188646;22;20024;-83
2024/03/11 03:55:24;;;;;;;54.60;34.13;;;7.90;99.90;;;;;;6189313;22;20008;-82
2024/03/11 03:57:49;;;;;;;42.83;26.77;;;7.90;99.90;;;;;;6215371;22;20007;-83
2024/03/11 04:00:15;;;;;;;32.55;21.55;;;7.90;99.90;;;;;;6188829;22;20597;-83
2024/03/11 04:02:44;;;;;;;36.88;23.27;;;7.90;99.90;;;;;;6239568;22;20505;-83
2024/03/11 04:05:10;;;;;;;33.90;23.02;;;7.90;99.90;;;;;;6190307;22;20452;-84
2024/03/11 04:07:41;;;;;;;31.50;20.23;;;7.90;99.90;;;;;;6189833;22;20007;-83
2024/03/11 04:10:13;;;;;;;31.10;19.38;;;7.80;99.90;;;;;;6190104;22;20314;-83
2024/03/11 04:12:44;;;;;;;30.90;19.58;;;7.90;99.90;;;;;;6214636;22;20050;-83
2024/03/11 04:15:13;;;;;;;39.60;24.20;;;7.90;99.90;;;;;;6214612;22;20008;-83
2024/03/11 04:17:42;;;;;;;31.55;20.35;;;7.90;99.90;;;;;;6213392;22;20015;-82
2024/03/11 04:20:11;;;;;;;35.90;22.88;;;7.90;99.90;;;;;;6214951;22;20008;-83
2024/03/11 04:22:44;;;;;;;43.20;26.95;;;7.90;99.90;;;;;;6214781;22;20085;-83
2024/03/11 04:25:15;;;;;;;43.80;26.73;;;7.90;99.90;;;;;;6187770;22;20012;-83
2024/03/11 04:27:41;;;;;;;44.55;25.13;;;7.90;99.90;;;;;;6213722;22;20068;-83
2024/03/11 04:30:07;;;;;;;47.95;29.50;;;7.90;99.90;;;;;;6189939;22;20094;-83
2024/03/11 04:32:32;;;;;;;60.70;35.10;;;7.90;99.90;;;;;;6176410;22;20042;-83
2024/03/11 04:34:58;;;;;;;56.72;34.47;;;7.90;99.90;;;;;;6188009;22;20695;-82
2024/03/11 04:37:24;;;;;;;57.83;33.65;;;7.90;99.90;;;;;;6191274;22;20009;-83
2024/03/11 04:39:49;;;;;;;52.70;31.50;;;7.90;99.90;;;;;;6190019;22;20004;-83
2024/03/11 04:42:15;;;;;;;61.13;34.47;;;7.90;99.90;;;;;;6189477;22;20095;-79
2024/03/11 04:44:42;;;;;;;50.83;30.15;;;7.90;99.90;;;;;;6187965;22;20012;-79
2024/03/11 04:47:08;;;;;;;39.42;25.70;;;7.90;99.90;;;;;;6187757;22;20004;-79
2024/03/11 04:49:34;;;;;;;53.28;32.08;;;7.90;99.90;;;;;;6213583;22;20038;-79
2024/03/11 04:51:59;;;;;;;56.20;31.92;;;7.90;99.90;;;;;;6212101;22;20024;-79
2024/03/11 04:54:27;;;;;;;56.38;32.75;;;7.90;99.90;;;;;;6189581;22;20014;-80
2024/03/11 04:56:53;;;;;;;62.90;35.50;;;7.90;99.90;;;;;;6185293;22;20014;-80
2024/03/11 04:59:18;;;;;;;65.50;35.17;;;7.90;99.90;;;;;;6212675;22;20424;-79
2024/03/11 05:01:44;;;;;;;51.03;31.48;;;7.90;99.90;;;;;;6212796;22;20472;-80
2024/03/11 05:04:10;;;;;;;54.92;32.13;;;7.90;99.90;;;;;;6188368;22;20460;-80
2024/03/11 05:06:36;;;;;;;53.67;32.63;;;7.90;99.90;;;;;;6212743;22;20056;-80
2024/03/11 05:09:02;;;;;;;65.05;35.65;;;7.90;99.90;;;;;;6187917;22;20008;-80
2024/03/11 05:11:30;;;;;;;61.17;36.42;;;7.90;99.90;;;;;;6188341;22;20474;-80
2024/03/11 05:13:56;;;;;;;72.45;38.85;;;7.90;99.90;;;;;;6215007;22;20031;-81
2024/03/11 05:16:22;;;;;;;70.18;38.58;;;7.90;99.90;;;;;;6211508;22;20019;-79
2024/03/11 05:18:48;;;;;;;44.67;25.75;;;7.90;99.90;;;;;;6188366;22;20014;-79
2024/03/11 05:21:13;;;;;;;57.30;34.08;;;7.90;99.90;;;;;;6211805;22;20373;-80
2024/03/11 05:23:40;;;;;;;31.17;20.48;;;8.00;99.90;;;;;;6212139;22;20015;-81
2024/03/11 05:26:06;;;;;;;41.40;25.42;;;8.00;99.90;;;;;;6186769;22;20018;-80
2024/03/11 05:28:31;;;;;;;35.25;20.67;;;8.10;99.90;;;;;;6187544;22;20519;-80
2024/03/11 05:30:58;;;;;;;31.02;18.70;;;8.10;99.90;;;;;;6212660;22;20086;-80
2024/03/11 05:33:23;;;;;;;43.50;25.23;;;8.00;99.90;;;;;;6189120;22;20441;-80
2024/03/11 05:35:50;;;;;;;45.78;27.50;;;8.00;99.90;;;;;;6186439;22;20081;-80
2024/03/11 05:38:15;;;;;;;41.00;25.60;;;8.10;99.90;;;;;;6211675;22;20038;-80
2024/03/11 05:40:43;;;;;;;38.60;24.70;;;8.00;99.90;;;;;;6186958;22;20450;-80
2024/03/11 05:43:09;;;;;;;37.60;23.98;;;8.00;99.90;;;;;;6188251;22;20004;-80
2024/03/11 05:45:35;;;;;;;43.80;25.73;;;8.00;99.90;;;;;;6187471;22;20003;-80
2024/03/11 05:48:04;;;;;;;53.35;32.42;;;8.00;99.90;;;;;;6186548;22;20030;-80
2024/03/11 05:50:30;;;;;;;43.10;25.77;;;8.00;99.90;;;;;;6188411;22;20440;-80
2024/03/11 05:52:55;;;;;;;36.25;22.63;;;8.00;99.90;;;;;;6213918;22;20016;-80
2024/03/11 05:55:22;;;;;;;38.58;21.98;;;8.00;99.90;;;;;;6186400;22;20008;-80
2024/03/11 05:57:48;;;;;;;41.17;24.15;;;8.00;99.90;;;;;;6188503;22;20007;-80
2024/03/11 06:00:15;;;;;;;39.70;23.33;;;8.00;99.90;;;;;;6188135;22;20087;-80
2024/03/11 06:02:43;;;;;;;46.58;28.60;;;8.00;99.90;;;;;;6213397;22;20353;-80
2024/03/11 06:05:09;;;;;;;50.70;30.42;;;8.10;99.90;;;;;;6187236;22;20030;-80
2024/03/11 06:07:35;;;;;;;53.55;31.35;;;8.20;99.90;;;;;;6188098;22;20473;-80
2024/03/11 06:10:00;;;;;;;50.50;29.85;;;8.10;99.90;;;;;;6187826;22;20436;-80
2024/03/11 06:12:28;;;;;;;53.92;29.02;;;8.10;99.90;;;;;;6188792;22;20015;-79
2024/03/11 06:14:54;;;;;;;55.13;32.45;;;8.10;99.90;;;;;;6186908;22;20588;-80
2024/03/11 06:17:20;;;;;;;58.85;33.80;;;8.10;99.90;;;;;;6186989;22;20026;-80
2024/03/11 06:19:46;;;;;;;59.90;35.08;;;8.10;99.90;;;;;;6187607;22;20169;-80
2024/03/11 06:22:15;;;;;;;57.80;33.90;;;8.10;99.90;;;;;;6212578;22;20353;-80
2024/03/11 06:24:41;;;;;;;37.20;22.65;;;8.10;99.90;;;;;;6188595;22;20392;-80
2024/03/11 06:27:06;;;;;;;55.35;31.35;;;8.10;99.90;;;;;;6211578;22;20011;-81
2024/03/11 06:29:32;;;;;;;44.40;25.55;;;8.10;99.90;;;;;;6185748;22;20011;-80
2024/03/11 06:32:00;;;;;;;34.95;21.75;;;8.20;99.90;;;;;;6185052;22;20012;-79
2024/03/11 06:34:27;;;;;;;46.55;25.35;;;8.20;99.90;;;;;;6188711;22;20465;-80
2024/03/11 06:36:53;;;;;;;45.90;25.85;;;8.20;99.90;;;;;;6187152;22;20016;-80
2024/03/11 06:39:18;;;;;;;37.30;22.27;;;8.20;99.90;;;;;;6186027;22;20049;-80
2024/03/11 06:41:44;;;;;;;64.35;35.22;;;8.20;99.90;;;;;;6187605;22;20015;-79
2024/03/11 06:44:10;;;;;;;60.60;33.28;;;8.20;99.90;;;;;;6213030;22;20062;-80
2024/03/11 06:46:36;;;;;;;35.67;21.73;;;8.30;99.90;;;;;;6185660;22;20023;-80
2024/03/11 06:49:02;;;;;;;44.58;24.40;;;8.30;99.90;;;;;;6187058;22;20016;-80
2024/03/11 06:51:28;;;;;;;40.38;22.52;;;8.30;99.90;;;;;;6187096;22;20464;-80
2024/03/11 06:53:54;;;;;;;41.53;22.23;;;8.30;99.90;;;;;;6207812;23;20016;-80
2024/03/11 06:56:19;;;;;;;50.28;27.13;;;8.30;99.90;;;;;;6186699;23;20076;-80
2024/03/11 06:58:45;;;;;;;52.20;27.63;;;8.30;99.90;;;;;;6182314;23;20240;-80
2024/03/11 07:01:11;;;;;;;50.47;26.70;;;8.30;99.90;;;;;;6179210;23;20008;-84
2024/03/11 07:03:37;;;;;;;45.67;23.40;;;8.30;99.90;;;;;;6185090;23;20016;-80
2024/03/11 07:06:03;;;;;;;48.80;26.45;;;8.30;99.90;;;;;;6187603;23;20373;-80
2024/03/11 07:08:30;;;;;;;65.07;34.03;;;8.30;99.90;;;;;;6210683;23;20016;-79
2024/03/11 07:10:56;;;;;;;45.92;24.92;;;8.40;99.90;;;;;;6235922;22;20448;-79
2024/03/11 07:13:21;;;;;;;67.00;33.78;;;8.40;99.90;;;;;;6241384;22;20007;-79
2024/03/11 07:15:47;;;;;;;57.33;28.92;;;8.40;99.90;;;;;;6242194;22;20007;-79
2024/03/11 07:18:16;;;;;;;48.20;25.92;;;8.40;99.90;;;;;;6191356;22;20442;-79
2024/03/11 07:20:45;;;;;;;45.83;23.10;;;8.40;99.90;;;;;;6212849;23;20108;-79
2024/03/11 07:23:12;;;;;;;51.70;27.00;;;8.40;99.90;;;;;;6186609;23;20546;-78
2024/03/11 07:25:38;;;;;;;47.20;24.70;;;8.40;99.90;;;;;;6217502;23;20642;-80
2024/03/11 07:28:05;;;;;;;50.25;26.52;;;8.50;99.90;;;;;;6185954;23;20079;-79
2024/03/11 07:30:31;;;;;;;66.10;33.80;;;8.50;99.90;;;;;;6179968;23;20012;-79
2024/03/11 07:33:06;;;;;;;56.47;28.42;;;8.50;99.90;;;;;;6187662;23;20014;-79
2024/03/11 07:35:35;;;;;;;;;;;8.50;99.90;;;;;;6166072;23;20450;-79
2024/03/11 07:38:00;;;;;;;46.67;23.55;;;8.40;99.90;;;;;;6229125;23;19953;-79
2024/03/11 07:40:26;;;;;;;64.68;34.55;;;8.40;99.90;;;;;;6186313;23;20011;-79
2024/03/11 07:42:54;;;;;;;68.38;32.75;;;8.40;99.90;;;;;;6198104;22;20004;-79
2024/03/11 07:45:20;;;;;;;51.80;27.00;;;8.50;99.90;;;;;;6186254;23;20299;-79
2024/03/11 07:47:47;;;;;;;49.78;28.58;;;8.50;99.90;;;;;;6186438;23;20079;-79
2024/03/11 07:50:13;;;;;;;57.33;28.77;;;8.50;99.90;;;;;;6186002;23;20008;-79
2024/03/11 07:52:39;;;;;;;55.95;29.70;;;8.50;99.90;;;;;;6188754;23;20020;-79
2024/03/11 07:55:06;;;;;;;52.15;29.33;;;8.40;99.90;;;;;;6217218;23;20010;-78
2024/03/11 07:57:32;;;;;;;71.13;34.80;;;8.50;99.90;;;;;;6211233;23;20466;-80
2024/03/11 07:59:57;;;;;;;54.55;27.10;;;8.50;99.90;;;;;;6181964;23;20019;-79
2024/03/11 08:02:23;;;;;;;56.45;29.85;;;8.50;99.90;;;;;;6161526;23;20012;-79
2024/03/11 08:04:49;;;;;;;59.55;32.88;;;8.50;99.90;;;;;;6182804;23;20409;-79
2024/03/11 08:07:15;;;;;;;62.15;29.42;;;8.50;99.90;;;;;;6184072;23;20028;-79
2024/03/11 08:09:47;;;;;;;52.78;25.90;;;8.50;99.90;;;;;;6179109;23;20035;-79
2024/03/11 08:12:18;;;;;;;54.63;29.25;;;8.50;99.90;;;;;;6139204;23;20075;-83
2024/03/11 08:14:45;;;;;;;53.85;27.88;;;8.50;99.90;;;;;;6176474;23;20488;-84
2024/03/11 08:17:11;;;;;;;50.13;26.52;;;8.60;99.90;;;;;;6195461;22;20003;-81
2024/03/11 08:19:38;;;;;;;58.90;30.35;;;8.50;99.90;;;;;;6181786;23;20362;-81
2024/03/11 08:22:09;;;;;;;48.38;26.42;;;8.60;99.90;;;;;;6176300;22;20019;-83
2024/03/11 08:24:36;;;;;;;56.63;31.50;;;8.50;99.90;;;;;;6233268;22;20011;-83
2024/03/11 08:27:04;;;;;;;56.03;30.40;;;8.60;99.90;;;;;;6188151;23;20012;-80
2024/03/11 08:29:31;;;;;;;52.15;29.08;;;8.50;99.90;;;;;;6210740;23;20335;-83
2024/03/11 08:31:57;;;;;;;52.00;29.65;;;8.60;99.90;;;;;;6216639;23;20040;-84
2024/03/11 08:34:23;;;;;;;48.45;26.83;;;8.50;99.90;;;;;;6206296;23;20370;-81
2024/03/11 08:36:48;;;;;;;47.60;25.27;;;8.50;99.90;;;;;;6182689;23;20095;-80
2024/03/11 08:39:16;;;;;;;49.08;26.90;;;8.50;99.90;;;;;;6182050;23;20341;-84
2024/03/11 08:41:42;;;;;;;46.08;25.65;;;8.50;99.90;;;;;;6192711;22;20107;-82
2024/03/11 08:44:10;;;;;;;47.20;26.23;;;8.50;99.90;;;;;;6183902;23;20047;-82
2024/03/11 08:46:35;;;;;;;48.38;25.30;;;8.50;99.90;;;;;;6177924;23;20015;-82
2024/03/11 08:49:01;;;;;;;52.42;26.60;;;8.50;99.90;;;;;;6184565;23;20012;-82
2024/03/11 08:51:26;;;;;;;43.20;21.77;;;8.50;99.90;;;;;;6181379;23;20004;-82
2024/03/11 08:53:52;;;;;;;46.97;27.30;;;8.50;99.90;;;;;;6207444;23;20018;-82
2024/03/11 08:56:17;;;;;;;52.45;28.98;;;8.60;99.90;;;;;;6183180;23;20046;-82
2024/03/11 08:58:43;;;;;;;50.03;26.58;;;8.60;99.90;;;;;;6180319;23;20015;-82
2024/03/11 09:01:09;;;;;;;53.05;31.23;;;8.60;99.90;;;;;;6183310;23;20015;-83
2024/03/11 09:03:35;;;;;;;48.03;27.95;;;8.50;99.90;;;;;;6179069;23;20434;-83
2024/03/11 09:06:02;;;;;;;46.72;25.83;;;8.60;99.90;;;;;;6180568;23;20020;-82
2024/03/11 09:08:28;;;;;;;45.03;24.23;;;8.60;99.90;;;;;;6209014;22;20008;-82
2024/03/11 09:10:53;;;;;;;46.88;26.35;;;8.60;99.90;;;;;;6185673;23;20023;-83
2024/03/11 09:13:19;;;;;;;44.30;22.27;;;8.60;99.90;;;;;;6182863;23;20023;-82
2024/03/11 09:15:46;;;;;;;44.08;24.25;;;8.60;99.90;;;;;;6180249;23;20467;-83
2024/03/11 09:18:12;;;;;;;48.83;27.40;;;8.60;99.90;;;;;;6182163;23;20103;-82
2024/03/11 09:20:37;;;;;;;43.58;25.88;;;8.60;99.90;;;;;;6203848;23;20583;-82
2024/03/11 09:23:05;;;;;;;39.50;21.75;;;8.60;99.90;;;;;;6209092;23;20593;-79
2024/03/11 09:25:31;;;;;;;48.40;27.52;;;8.60;99.90;;;;;;6182549;23;20019;-79
2024/03/11 09:28:00;;;;;;;50.80;28.05;;;8.60;99.90;;;;;;6171269;22;20322;-79
2024/03/11 09:30:28;;;;;;;42.75;25.23;;;8.60;99.90;;;;;;6207636;23;20004;-79
2024/03/11 09:32:55;;;;;;;44.55;24.77;;;8.60;99.90;;;;;;6206076;23;20012;-79
2024/03/11 09:35:20;;;;;;;47.20;26.80;;;8.60;99.90;;;;;;6181466;23;20008;-79
2024/03/11 09:37:46;;;;;;;47.72;27.23;;;8.70;99.90;;;;;;6209757;22;20008;-79
2024/03/11 09:40:16;;;;;;;49.97;28.58;;;8.70;99.90;;;;;;6238122;22;20015;-78
2024/03/11 09:42:44;;;;;;;38.95;21.55;;;8.70;99.90;;;;;;6237807;22;20069;-78
2024/03/11 09:45:10;;;;;;;50.55;28.05;;;8.70;99.90;;;;;;6237379;22;20014;-79
2024/03/11 09:47:36;;;;;;;45.20;26.88;;;8.80;99.90;;;;;;6237436;22;20098;-79
2024/03/11 09:50:01;;;;;;;45.85;24.65;;;8.70;99.90;;;;;;6213313;22;20593;-78
2024/03/11 09:52:27;;;;;;;53.05;30.73;;;8.90;99.90;;;;;;6210633;22;20023;-78
2024/03/11 09:54:53;;;;;;;52.63;30.27;;;8.90;99.90;;;;;;6236814;22;20558;-78
2024/03/11 09:57:18;;;;;;;40.35;22.55;;;8.80;99.90;;;;;;6237867;22;20015;-79
2024/03/11 09:59:49;;;;;;;45.95;25.52;;;8.90;99.90;;;;;;6237607;22;20065;-79
2024/03/11 10:02:15;;;;;;;47.60;28.23;;;8.90;99.90;;;;;;6221119;22;20022;-78
2024/03/11 10:04:41;;;;;;;40.92;24.05;;;8.90;99.90;;;;;;6211814;22;20008;-78
2024/03/11 10:07:09;;;;;;;45.35;27.40;;;8.90;99.90;;;;;;6212515;22;20032;-78
2024/03/11 10:09:44;;;;;;;48.00;25.30;;;8.90;99.90;;;;;;6239841;22;20007;-78
2024/03/11 10:12:10;;;;;;;51.75;28.05;;;8.90;99.90;;;;;;6214511;22;20047;-78
2024/03/11 10:14:47;;;;;;;45.00;26.05;;;8.90;99.90;;;;;;6185125;23;20334;-76
2024/03/11 10:17:24;;;;;;;49.38;28.20;;;8.90;99.90;;;;;;6210990;23;20498;-76
2024/03/11 10:19:59;;;;;;;43.60;25.75;;;9.00;99.90;;;;;;6188401;23;20103;-78
2024/03/11 10:22:26;;;;;;;46.53;26.60;;;9.00;99.90;;;;;;6182057;23;20408;-77
2024/03/11 10:24:52;;;;;;;45.63;27.17;;;9.00;99.90;;;;;;6205858;23;20103;-78
2024/03/11 10:27:20;;;;;;;54.25;31.08;;;9.00;99.90;;;;;;6204985;23;20035;-77
2024/03/11 10:29:46;;;;;;;46.97;25.67;;;9.00;99.90;;;;;;6181440;23;20268;-78
2024/03/11 10:32:30;;;;;;;43.55;25.42;;;9.10;99.90;;;;;;6205559;23;20012;-77
2024/03/11 10:34:56;;;;;;;39.53;23.50;;;9.10;99.90;;;;;;6178293;23;20356;-77
2024/03/11 10:37:22;;;;;;;38.85;21.73;;;9.20;99.90;;;;;;6211328;23;20018;-78
2024/03/11 10:39:48;;;;;;;41.40;26.30;;;9.10;99.90;;;;;;6233991;22;20011;-77
2024/03/11 10:42:26;;;;;;;39.45;23.77;;;9.10;99.90;;;;;;6212324;22;20011;-77
2024/03/11 10:44:54;;;;;;;35.95;19.83;;;9.20;99.90;;;;;;6211576;22;20018;-78
2024/03/11 10:47:21;;;;;;;37.50;22.45;;;9.20;99.90;;;;;;6213927;22;20007;-77
2024/03/11 10:49:48;;;;;;;37.65;23.65;;;9.20;99.90;;;;;;6239440;22;20384;-77
2024/03/11 10:52:22;;;;;;;44.35;24.98;;;9.20;99.90;;;;;;6207900;23;20020;-78
2024/03/11 10:54:54;;;;;;;35.63;21.30;;;9.20;99.90;;;;;;6208252;23;20028;-78
2024/03/11 10:57:35;;;;;;;35.97;21.60;;;9.20;99.90;;;;;;6182577;23;20323;-77
2024/03/11 11:00:44;;;;;;;33.75;21.33;;;9.30;99.90;;;;;;6235931;23;20016;-77
2024/03/11 11:03:08;;;;;;;34.08;20.35;;;9.30;99.90;;;;;;6231228;22;20536;-77
2024/03/11 11:05:47;;;;;;;30.73;20.33;;;9.40;99.90;;;;;;6163646;23;20631;-77
2024/03/11 11:08:12;;;;;;;30.77;18.92;;;9.30;99.90;;;;;;6238244;22;20012;-77
2024/03/11 11:10:40;;;;;;;37.45;23.88;;;9.40;99.90;;;;;;6213913;22;20205;-78
2024/03/11 11:13:06;;;;;;;32.38;19.73;;;9.40;99.90;;;;;;6215852;22;20591;-78
2024/03/11 11:15:35;;;;;;;33.42;19.58;;;9.40;99.90;;;;;;6188977;22;20015;-78
2024/03/11 11:18:06;;;;;;;29.73;19.70;;;9.40;99.90;;;;;;6189199;22;20090;-78
2024/03/11 11:20:37;;;;;;;32.63;20.60;;;9.40;99.90;;;;;;6189199;22;20514;-77
2024/03/11 11:23:05;;;;;;;32.30;20.40;;;9.50;99.90;;;;;;6217451;22;20008;-77
2024/03/11 11:25:40;;;;;;;32.47;20.52;;;9.50;99.90;;;;;;6236543;22;20010;-78
2024/03/11 11:51:24;;;;;;;30.15;20.75;;;9.60;99.90;;;;;;5040306;27;20209;-81
2024/03/11 11:53:50;;;;;;;26.83;18.35;;;9.60;99.90;;;;;;5007688;28;20027;-81
2024/03/11 11:56:21;;;;;;;28.40;19.17;;;9.70;99.90;;;;;;4975449;28;20474;-81
2024/03/11 11:58:47;;;;;;;29.52;21.10;;;9.70;99.90;;;;;;4985470;28;20087;-81
2024/03/11 12:01:12;;;;;;;24.52;17.17;;;9.80;99.90;;;;;;4982115;28;20026;-81
2024/03/11 12:03:38;;;;;;;31.00;18.50;;;9.70;99.90;;;;;;4966715;28;20034;-81
2024/03/11 12:06:19;;;;;;;27.92;18.92;;;9.80;99.90;;;;;;4958727;28;20077;-81
2024/03/11 12:08:47;;;;;;;28.23;17.73;;;9.90;99.90;;;;;;4960597;28;20026;-82
2024/03/11 12:11:15;;;;;;;25.52;17.90;;;10.00;99.90;;;;;;4946208;28;20034;-81
2024/03/11 12:13:43;;;;;;;25.10;16.63;;;9.90;99.90;;;;;;4983535;28;20495;-80
2024/03/11 12:16:20;;;;;;;25.90;17.60;;;9.80;99.90;;;;;;4999012;28;20309;-81
2024/03/11 12:19:02;;;;;;;25.88;17.02;;;9.90;99.90;;;;;;4976046;28;20109;-81
2024/03/11 12:21:28;;;;;;;23.00;15.02;;;10.00;99.90;;;;;;4971747;28;20069;-82
2024/03/11 12:23:54;;;;;;;19.77;12.77;;;10.00;99.90;;;;;;4978137;28;20117;-81
2024/03/11 12:26:21;;;;;;;26.67;17.20;;;9.70;99.90;;;;;;5001677;28;20092;-78
2024/03/11 12:29:06;;;;;;;26.38;15.73;;;9.70;99.90;;;;;;4981232;28;20034;-78
2024/03/11 12:31:34;;;;;;;24.40;16.33;;;9.70;99.90;;;;;;5013714;28;20013;-78
2024/03/11 12:34:01;;;;;;;31.83;21.13;;;9.70;99.90;;;;;;4987900;28;20534;-78
2024/03/11 12:36:29;;;;;;;30.35;19.60;;;9.60;99.90;;;;;;5000295;28;20029;-77
2024/03/11 12:38:56;;;;;;;26.55;16.33;;;9.60;99.90;;;;;;5002799;28;20060;-78
2024/03/11 12:41:43;;;;;;;21.45;13.23;;;9.60;99.90;;;;;;4978721;28;20338;-77
2024/03/11 12:44:13;;;;;;;24.85;14.65;;;9.50;99.90;;;;;;4984262;28;20034;-78
2024/03/11 12:46:42;;;;;;;27.38;16.67;;;9.50;99.90;;;;;;4996544;28;20030;-78
2024/03/11 12:49:11;;;;;;;28.42;16.95;;;9.60;99.90;;;;;;4990014;28;20058;-77
2024/03/11 12:51:40;;;;;;;23.98;13.70;;;9.60;99.90;;;;;;4974611;28;20518;-77
2024/03/11 12:54:18;;;;;;;24.70;15.25;;;9.60;99.90;;;;;;4984143;28;20022;-77
2024/03/11 12:57:04;;;;;;;21.50;13.65;;;9.60;99.90;;;;;;4986999;28;20029;-78
2024/03/11 12:59:31;;;;;;;;;;;9.60;99.90;;;;;;4984482;28;20030;-78
2024/03/11 13:02:20;;;;;;;16.88;9.10;;;9.50;99.90;;;;;;4993506;28;19910;-78